createdAt,value
2023-03-05T00:01:30.141Z,5.30
2023-03-05T00:04:01.142Z,5.80
2023-03-05T00:06:33.816Z,5.00
2023-03-05T00:09:05.307Z,5.40
2023-03-05T00:11:36.427Z,5.50
2023-03-05T00:14:11.135Z,5.00
2023-03-05T00:16:42.577Z,5.50
2023-03-05T00:19:14.807Z,5.30
2023-03-05T00:21:46.394Z,5.60
2023-03-05T00:24:20.544Z,5.10
2023-03-05T00:26:51.294Z,5.00
2023-03-05T00:29:24.196Z,5.30
2023-03-05T00:31:55.128Z,5.50
2023-03-05T00:34:25.899Z,5.20
2023-03-05T00:36:56.730Z,5.60
2023-03-05T00:39:29.097Z,5.20
2023-03-05T00:42:01.351Z,6.20
2023-03-05T00:44:32.608Z,5.70
2023-03-05T00:47:05.006Z,5.50
2023-03-05T00:49:35.940Z,6.80
2023-03-05T00:52:08.727Z,6.30
2023-03-05T00:54:45.094Z,6.40
2023-03-05T00:57:15.774Z,7.10
2023-03-05T00:59:46.700Z,7.00
2023-03-05T01:02:17.655Z,6.90
2023-03-05T01:04:48.789Z,7.30
2023-03-05T01:07:19.637Z,7.40
2023-03-05T01:09:50.374Z,7.30
2023-03-05T01:12:21.262Z,6.50
2023-03-05T01:14:52.308Z,6.70
2023-03-05T01:17:23.865Z,7.40
2023-03-05T01:19:54.768Z,6.90
2023-03-05T01:22:25.916Z,5.90
2023-03-05T01:25:00.768Z,7.80
2023-03-05T01:27:33.175Z,6.00
2023-03-05T01:30:04.998Z,8.30
2023-03-05T01:32:36.033Z,7.40
2023-03-05T01:35:08.812Z,6.70
2023-03-05T01:37:39.601Z,6.90
2023-03-05T01:40:14.270Z,7.10
2023-03-05T01:42:49.282Z,6.80
2023-03-05T01:45:22.450Z,8.40
2023-03-05T01:47:55.690Z,7.30
2023-03-05T01:50:28.663Z,7.80
2023-03-05T01:53:03.675Z,8.00
2023-03-05T01:55:37.362Z,7.30
2023-03-05T01:58:12.940Z,7.70
2023-03-05T02:00:47.860Z,8.00
2023-03-05T02:03:19.613Z,7.30
2023-03-05T02:05:50.756Z,7.30
2023-03-05T02:08:25.295Z,8.40
2023-03-05T02:10:58.418Z,7.80
2023-03-05T02:13:34.389Z,8.40
2023-03-05T02:20:23.614Z,6.50
2023-03-05T02:22:55.391Z,8.70
2023-03-05T02:25:28.787Z,7.90
2023-03-05T02:28:27.389Z,7.20
2023-03-05T02:30:58.647Z,7.10
2023-03-05T02:33:29.856Z,7.90
2023-03-05T02:36:06.833Z,8.80
2023-03-05T02:38:38.193Z,6.90
2023-03-05T02:41:36.875Z,8.40
2023-03-05T02:44:32.306Z,7.50
2023-03-05T02:47:03.074Z,8.90
2023-03-05T02:49:35.743Z,8.00
2023-03-05T02:52:10.622Z,7.80
2023-03-05T03:02:35.344Z,6.90
2023-03-05T03:08:53.001Z,7.00
2023-03-05T03:11:23.818Z,7.00
2023-03-05T03:15:32.472Z,8.00
2023-03-05T03:18:03.227Z,8.60
2023-03-05T03:20:35.056Z,8.10
2023-03-05T03:42:23.067Z,9.30
2023-03-05T03:44:53.934Z,7.60
2023-03-05T03:48:20.893Z,8.30
2023-03-05T03:50:51.662Z,7.20
2023-03-05T03:53:22.478Z,6.60
2023-03-05T03:55:58.574Z,6.60
2023-03-05T03:58:54.284Z,7.30
2023-03-05T04:01:25.271Z,6.50
2023-03-05T04:04:09.004Z,6.10
2023-03-05T04:06:39.921Z,7.00
2023-03-05T04:09:11.217Z,7.60
2023-03-05T04:12:12.191Z,6.40
2023-03-05T04:15:27.833Z,6.30
2023-03-05T04:17:58.578Z,7.40
2023-03-05T04:20:29.328Z,7.30
2023-03-05T04:23:02.913Z,6.50
2023-03-05T04:25:33.597Z,6.50
2023-03-05T04:28:04.339Z,7.60
2023-03-05T04:30:35.101Z,6.80
2023-03-05T04:33:06.249Z,6.20
2023-03-05T04:35:37.065Z,7.30
2023-03-05T04:38:08.050Z,7.30
2023-03-05T04:40:39.115Z,6.80
2023-03-05T04:43:10.275Z,6.90
2023-03-05T04:45:44.251Z,5.70
2023-03-05T04:48:15.020Z,7.20
2023-03-05T04:50:46.198Z,6.30
2023-03-05T04:53:16.894Z,6.80
2023-03-05T04:55:47.593Z,7.20
2023-03-05T04:58:18.375Z,6.20
2023-03-05T05:00:49.116Z,5.70
2023-03-05T05:03:22.250Z,6.10
2023-03-05T05:06:02.005Z,6.70
2023-03-05T05:08:32.747Z,6.20
2023-03-05T05:11:06.789Z,6.10
2023-03-05T05:13:37.753Z,6.10
2023-03-05T05:16:10.311Z,6.70
2023-03-05T05:18:41.114Z,7.60
2023-03-05T05:21:14.495Z,6.10
2023-03-05T05:23:45.471Z,6.00
2023-03-05T05:26:17.066Z,6.00
2023-03-05T05:28:47.791Z,5.90
2023-03-05T05:31:19.729Z,6.00
2023-03-05T05:33:50.521Z,6.10
2023-03-05T05:36:22.538Z,5.90
2023-03-05T05:38:54.556Z,5.60
2023-03-05T05:41:25.325Z,6.80
2023-03-05T05:43:56.010Z,5.50
2023-03-05T05:46:26.748Z,6.00
2023-03-05T05:49:01.196Z,6.10
2023-03-05T05:51:31.971Z,5.90
2023-03-05T05:54:02.714Z,5.90
2023-03-05T05:56:34.028Z,5.80
2023-03-05T05:59:04.768Z,6.00
2023-03-05T06:01:36.560Z,5.50
2023-03-05T06:04:07.405Z,5.60
2023-03-05T06:06:38.323Z,5.30
2023-03-05T06:09:09.073Z,6.20
2023-03-05T06:11:39.850Z,6.20
2023-03-05T06:14:11.048Z,5.70
2023-03-05T06:16:42.722Z,5.30
2023-03-05T06:19:15.104Z,5.90
2023-03-05T06:21:46.467Z,6.20
2023-03-05T06:24:19.370Z,5.10
2023-03-05T06:26:50.560Z,5.90
2023-03-05T06:29:21.285Z,6.50
2023-03-05T06:31:52.055Z,7.10
2023-03-05T06:34:22.804Z,6.00
2023-03-05T06:36:53.600Z,6.10
2023-03-05T06:39:24.344Z,5.80
2023-03-05T06:41:55.035Z,6.70
2023-03-05T06:44:25.901Z,6.00
2023-03-05T06:46:56.661Z,5.80
2023-03-05T06:49:27.467Z,6.40
2023-03-05T06:52:01.480Z,5.90
2023-03-05T06:54:32.315Z,5.30
2023-03-05T06:57:03.065Z,5.80
2023-03-05T06:59:34.393Z,6.20
2023-03-05T07:02:05.178Z,5.60
2023-03-05T07:04:35.989Z,5.40
2023-03-05T07:07:06.760Z,5.80
2023-03-05T07:09:42.894Z,6.10
2023-03-05T07:12:13.881Z,6.50
2023-03-05T07:14:48.115Z,6.50
2023-03-05T07:17:18.988Z,6.10
2023-03-05T07:19:49.711Z,5.40
2023-03-05T07:22:20.954Z,6.40
2023-03-05T07:24:56.118Z,5.40
2023-03-05T07:27:27.078Z,5.40
2023-03-05T07:30:09.140Z,5.60
2023-03-05T07:32:42.913Z,5.30
2023-03-05T07:35:14.045Z,5.30
2023-03-05T07:37:44.821Z,5.70
2023-03-05T07:40:15.979Z,6.40
2023-03-05T07:42:46.886Z,6.00
2023-03-05T07:45:27.912Z,5.70
2023-03-05T07:48:01.286Z,5.70
2023-03-05T07:50:33.448Z,6.00
2023-03-05T07:53:04.737Z,6.10
2023-03-05T07:55:38.056Z,6.40
2023-03-05T07:58:08.835Z,6.10
2023-03-05T08:00:40.831Z,6.50
2023-03-05T08:03:11.740Z,6.60
2023-03-05T08:05:44.305Z,6.40
2023-03-05T08:08:18.910Z,7.00
2023-03-05T08:10:50.293Z,6.50
2023-03-05T08:13:21.409Z,5.90
2023-03-05T08:15:52.708Z,6.70
2023-03-05T08:18:23.514Z,6.40
2023-03-05T08:20:54.609Z,6.10
2023-03-05T08:23:25.692Z,6.80
2023-03-05T08:25:57.574Z,6.90
2023-03-05T08:28:29.644Z,6.80
2023-03-05T08:31:00.677Z,6.70
2023-03-05T08:33:35.323Z,7.40
2023-03-05T08:36:07.386Z,7.90
2023-03-05T08:38:38.350Z,5.90
2023-03-05T08:41:09.467Z,8.00
2023-03-05T08:43:40.610Z,7.40
2023-03-05T08:46:12.978Z,8.10
2023-03-05T08:48:43.871Z,7.60
2023-03-05T08:51:17.277Z,7.50
2023-03-05T08:53:48.964Z,7.30
2023-03-05T08:56:20.136Z,8.20
2023-03-05T08:58:56.596Z,8.00
2023-03-05T09:01:27.984Z,7.90
2023-03-05T09:03:59.405Z,7.90
2023-03-05T09:06:45.534Z,8.20
2023-03-05T09:09:16.383Z,8.40
2023-03-05T09:11:48.840Z,9.10
2023-03-05T09:14:22.320Z,8.80
2023-03-05T09:16:53.284Z,8.20
2023-03-05T09:19:24.210Z,9.20
2023-03-05T09:21:56.941Z,9.60
2023-03-05T09:24:28.180Z,9.50
2023-03-05T09:27:02.725Z,7.90
2023-03-05T09:29:33.976Z,8.80
2023-03-05T09:32:05.760Z,8.70
2023-03-05T09:34:38.136Z,7.80
2023-03-05T09:37:11.000Z,7.90
2023-03-05T09:39:42.742Z,7.60
2023-03-05T09:42:29.816Z,9.10
2023-03-05T09:45:14.840Z,9.00
2023-03-05T09:47:56.935Z,8.40
2023-03-05T09:50:38.738Z,8.80
2023-03-05T09:53:20.268Z,8.60
2023-03-05T09:55:55.773Z,9.60
2023-03-05T09:58:36.665Z,8.80
2023-03-05T10:01:11.534Z,8.50
2023-03-05T10:03:53.123Z,9.30
2023-03-05T10:06:27.552Z,10.10
2023-03-05T10:09:05.174Z,9.90
2023-03-05T10:11:46.079Z,9.10
2023-03-05T10:14:22.853Z,10.10
2023-03-05T10:17:21.113Z,9.40
2023-03-05T10:20:32.502Z,9.30
2023-03-05T10:23:18.129Z,8.30
2023-03-05T10:28:35.730Z,9.60
2023-03-05T10:31:24.905Z,9.10
2023-03-05T10:34:05.997Z,11.00
2023-03-05T10:36:49.245Z,9.80
2023-03-05T10:39:48.033Z,8.90
2023-03-05T10:42:31.013Z,9.90
2023-03-05T10:45:09.714Z,10.00
2023-03-05T10:47:46.894Z,10.30
2023-03-05T10:50:21.551Z,10.20
2023-03-05T10:53:08.718Z,11.80
2023-03-05T10:55:39.648Z,9.90
2023-03-05T10:58:27.510Z,8.80
2023-03-05T11:01:04.272Z,8.60
2023-03-05T11:03:57.594Z,9.00
2023-03-05T11:06:34.055Z,8.60
2023-03-05T11:09:19.982Z,7.20
2023-03-05T11:12:08.628Z,6.20
2023-03-05T11:14:41.357Z,6.30
2023-03-05T11:17:34.986Z,5.50
2023-03-05T11:20:36.696Z,5.60
2023-03-05T11:23:13.184Z,4.30
2023-03-05T11:26:02.921Z,3.80
2023-03-05T11:28:38.947Z,4.10
2023-03-05T11:31:25.318Z,3.90
2023-03-05T11:34:25.510Z,3.30
2023-03-05T11:37:08.491Z,4.20
2023-03-05T11:39:41.514Z,4.40
2023-03-05T11:42:42.250Z,5.10
2023-03-05T11:48:42.827Z,5.60
2023-03-05T11:51:22.523Z,6.40
2023-03-05T11:54:02.313Z,6.30
2023-03-05T11:56:39.347Z,6.40
2023-03-05T11:59:21.336Z,7.00
2023-03-05T12:01:57.094Z,7.00
2023-03-05T12:04:28.850Z,7.60
2023-03-05T12:07:02.829Z,8.60
2023-03-05T12:09:42.213Z,7.80
2023-03-05T12:12:36.155Z,8.50
2023-03-05T12:15:29.545Z,8.50
2023-03-05T12:18:10.370Z,7.50
2023-03-05T12:20:49.911Z,6.30
2023-03-05T12:23:23.057Z,5.30
2023-03-05T12:25:57.894Z,4.80
2023-03-05T12:29:01.452Z,5.50
2023-03-05T12:31:39.489Z,4.90
2023-03-05T12:34:38.273Z,4.60
2023-03-05T12:37:12.837Z,4.30
2023-03-05T12:40:38.460Z,5.10
2023-03-05T12:43:42.409Z,4.80
2023-03-05T12:46:30.153Z,4.70
2023-03-05T12:52:47.468Z,5.20
2023-03-05T12:55:23.767Z,5.80
2023-03-05T12:58:09.764Z,6.30
2023-03-05T13:01:19.983Z,6.00
2023-03-05T13:04:53.724Z,4.60
2023-03-05T13:08:23.653Z,4.90
2023-03-05T13:10:58.327Z,5.20
2023-03-05T13:13:37.464Z,5.10
2023-03-05T13:16:20.131Z,5.50
2023-03-05T13:18:58.704Z,4.60
2023-03-05T13:21:31.546Z,4.60
2023-03-05T13:24:05.128Z,4.90
2023-03-05T13:26:46.420Z,4.80
2023-03-05T13:29:19.427Z,4.00
2023-03-05T13:34:37.661Z,4.20
2023-03-05T13:37:21.329Z,4.20
2023-03-05T13:39:56.588Z,4.80
2023-03-05T13:46:13.157Z,4.10
2023-03-05T13:48:44.144Z,6.50
2023-03-05T13:51:14.979Z,4.90
2023-03-05T13:53:46.242Z,4.20
2023-03-05T13:56:22.792Z,4.60
2023-03-05T13:58:56.642Z,4.30
2023-03-05T14:01:43.891Z,4.30
2023-03-05T14:04:28.646Z,4.50
2023-03-05T14:07:05.944Z,4.60
2023-03-05T14:09:49.640Z,4.30
2023-03-05T14:12:31.401Z,4.60
2023-03-05T14:15:07.041Z,5.40
2023-03-05T14:17:44.627Z,4.50
2023-03-05T14:20:30.502Z,4.20
2023-03-05T14:23:03.245Z,5.20
2023-03-05T14:25:39.056Z,4.80
2023-03-05T14:28:28.094Z,4.90
2023-03-05T14:30:59.993Z,4.70
2023-03-05T14:33:33.741Z,4.90
2023-03-05T14:36:11.327Z,5.30
2023-03-05T14:38:45.568Z,5.40
2023-03-05T14:41:33.102Z,5.70
2023-03-05T14:44:10.418Z,6.00
2023-03-05T14:46:41.794Z,5.40
2023-03-05T14:49:12.600Z,5.90
2023-03-05T14:51:46.959Z,5.20
2023-03-05T14:54:24.437Z,6.10
2023-03-05T14:56:58.187Z,5.60
2023-03-05T14:59:29.535Z,6.30
2023-03-05T15:02:03.498Z,6.70
2023-03-05T15:08:01.969Z,6.90
2023-03-05T15:10:33.239Z,6.10
2023-03-05T15:13:04.695Z,6.70
2023-03-05T15:15:43.289Z,6.20
2023-03-05T15:19:31.202Z,7.10
2023-03-05T15:26:39.191Z,7.40
2023-03-05T15:29:07.253Z,6.40
2023-03-05T15:31:39.839Z,5.80
2023-03-05T15:34:08.038Z,6.50
2023-03-05T15:36:46.488Z,7.30
2023-03-05T15:51:22.786Z,7.70
2023-03-05T15:54:09.622Z,6.20
2023-03-05T15:57:20.152Z,6.40
2023-03-05T16:00:05.510Z,6.90
2023-03-05T16:02:52.255Z,6.90
2023-03-05T16:05:26.495Z,6.70
2023-03-05T16:08:07.816Z,8.10
2023-03-05T16:10:42.962Z,7.10
2023-03-05T16:13:21.578Z,7.90
2023-03-05T16:17:04.057Z,6.70
2023-03-05T16:19:44.182Z,7.70
2023-03-05T16:22:16.886Z,8.10
2023-03-05T16:25:13.867Z,7.30
2023-03-05T16:28:10.518Z,7.30
2023-03-05T16:31:00.517Z,8.00
2023-03-05T16:33:34.253Z,8.60
2023-03-05T16:36:32.718Z,9.10
2023-03-05T16:39:06.604Z,8.30
2023-03-05T16:41:39.123Z,8.80
2023-03-05T16:44:13.973Z,9.50
2023-03-05T16:46:53.249Z,10.60
2023-03-05T16:49:29.796Z,10.20
2023-03-05T16:57:01.896Z,9.30
2023-03-05T16:59:40.861Z,9.80
2023-03-05T17:02:15.474Z,9.60
2023-03-05T17:04:55.999Z,10.10
2023-03-05T17:07:28.776Z,9.60
2023-03-05T17:10:01.239Z,9.20
2023-03-05T17:12:32.440Z,9.80
2023-03-05T17:15:11.840Z,9.90
2023-03-05T17:17:48.623Z,10.50
2023-03-05T17:20:22.223Z,10.30
2023-03-05T17:22:53.434Z,9.60
2023-03-05T17:25:24.651Z,10.10
2023-03-05T17:27:55.675Z,10.50
2023-03-05T17:30:29.533Z,9.60
2023-03-05T17:33:02.755Z,10.80
2023-03-05T17:38:37.737Z,11.10
2023-03-05T17:46:01.345Z,12.60
2023-03-05T17:48:34.104Z,11.60
2023-03-05T17:51:28.830Z,10.60
2023-03-05T17:53:59.764Z,10.70
2023-03-05T17:56:33.093Z,12.20
2023-03-05T17:59:36.707Z,11.90
2023-03-05T18:02:29.654Z,11.20
2023-03-05T18:05:13.437Z,9.80
2023-03-05T18:07:51.023Z,11.30
2023-03-05T18:10:29.384Z,11.80
2023-03-05T18:13:04.413Z,11.30
2023-03-05T18:15:37.651Z,12.50
2023-03-05T18:18:09.393Z,11.90
2023-03-05T18:20:41.854Z,12.50
2023-03-05T18:23:19.841Z,13.10
2023-03-05T18:25:58.494Z,13.00
2023-03-05T18:28:29.504Z,14.90
2023-03-05T18:31:25.403Z,15.80
2023-03-05T18:34:35.552Z,15.20
2023-03-05T18:37:52.863Z,15.40
2023-03-05T18:41:18.180Z,15.70
2023-03-05T18:44:41.401Z,15.90
2023-03-05T18:48:05.307Z,16.80
2023-03-05T18:51:24.618Z,17.00
2023-03-05T19:04:48.958Z,19.90
2023-03-05T19:07:22.072Z,16.00
2023-03-05T19:09:58.864Z,18.00
2023-03-05T19:13:20.140Z,16.60
2023-03-05T19:15:51.469Z,16.40
2023-03-05T19:18:26.729Z,16.30
2023-03-05T19:23:36.903Z,13.70
2023-03-05T19:26:08.381Z,15.80
2023-03-05T19:28:46.456Z,15.90
2023-03-05T19:31:45.212Z,17.70
2023-03-05T19:34:24.670Z,16.30
2023-03-05T19:37:00.453Z,16.80
2023-03-05T19:39:32.517Z,14.80
2023-03-05T19:42:06.464Z,17.80
2023-03-05T19:44:40.819Z,15.20
2023-03-05T19:47:18.644Z,15.40
2023-03-05T19:50:16.259Z,16.40
2023-03-05T19:52:47.182Z,14.60
2023-03-05T19:55:21.813Z,15.30
2023-03-05T19:57:58.888Z,17.20
2023-03-05T20:00:49.178Z,17.80
2023-03-05T20:03:20.528Z,16.50
2023-03-05T20:06:15.529Z,16.70
2023-03-05T20:09:07.567Z,15.70
2023-03-05T20:11:52.393Z,17.40
2023-03-05T20:14:46.697Z,18.80
2023-03-05T20:17:24.323Z,20.20
2023-03-05T20:20:13.741Z,20.40
2023-03-05T20:22:56.709Z,19.90
2023-03-05T20:25:29.067Z,19.50
2023-03-05T20:28:00.094Z,17.50
2023-03-05T20:31:29.124Z,17.20
2023-03-05T20:34:03.189Z,17.90
2023-03-05T20:37:02.447Z,18.00
2023-03-05T20:39:40.166Z,17.70
2023-03-05T20:42:26.546Z,17.10
2023-03-05T20:44:57.732Z,18.70
2023-03-05T20:47:39.848Z,16.40
2023-03-05T20:50:14.515Z,17.10
2023-03-05T20:52:53.210Z,17.40
2023-03-05T20:55:28.581Z,15.20
2023-03-05T20:58:00.224Z,13.90
2023-03-05T21:00:55.626Z,15.20
2023-03-05T21:03:26.750Z,14.40
2023-03-05T21:06:45.385Z,16.00
2023-03-05T21:10:33.381Z,15.60
2023-03-05T21:13:11.438Z,13.30
2023-03-05T21:15:42.749Z,18.90
2023-03-05T21:18:14.185Z,19.60
2023-03-05T21:23:51.155Z,16.00
2023-03-05T21:26:24.944Z,16.20
2023-03-05T21:28:55.934Z,16.20
2023-03-05T21:31:39.403Z,15.60
2023-03-05T21:38:36.492Z,13.60
2023-03-05T21:41:27.593Z,14.30
2023-03-05T21:47:44.928Z,15.60
2023-03-05T21:50:17.456Z,15.70
2023-03-05T21:52:48.523Z,14.60
2023-03-05T21:55:24.448Z,14.80
2023-03-05T21:58:22.817Z,15.10
2023-03-05T22:01:52.556Z,13.10
2023-03-05T22:08:42.989Z,13.50
2023-03-05T22:11:19.418Z,14.30
2023-03-05T22:17:24.099Z,19.50
2023-03-05T22:21:27.453Z,17.90
2023-03-05T22:31:38.866Z,14.50
2023-03-05T22:34:09.722Z,15.30
2023-03-05T22:36:40.871Z,14.50
2023-03-05T22:39:11.717Z,16.80
2023-03-05T22:41:44.474Z,15.20
2023-03-05T22:44:15.252Z,15.60
2023-03-05T22:46:46.221Z,16.10
2023-03-05T22:49:17.043Z,16.50
2023-03-05T22:51:47.854Z,16.60
2023-03-05T22:54:18.681Z,16.30
2023-03-05T22:56:49.670Z,16.20
2023-03-05T22:59:20.613Z,17.40
2023-03-05T23:01:51.464Z,19.10
2023-03-05T23:04:38.946Z,15.20
2023-03-05T23:07:10.201Z,17.40
2023-03-05T23:09:41.036Z,16.70
2023-03-05T23:12:12.871Z,18.20
2023-03-05T23:14:43.684Z,17.90
2023-03-05T23:17:14.553Z,19.40
2023-03-05T23:19:45.479Z,16.70
2023-03-05T23:22:21.086Z,18.70
2023-03-05T23:24:52.484Z,19.30
2023-03-05T23:27:23.453Z,19.70
2023-03-05T23:30:09.137Z,19.60
2023-03-05T23:35:15.080Z,17.40
2023-03-05T23:42:18.235Z,18.40
2023-03-05T23:49:27.759Z,18.80
2023-03-05T23:51:58.624Z,19.60
2023-03-05T23:54:29.611Z,18.80
2023-03-05T23:57:00.520Z,20.30
2023-03-05T23:59:31.365Z,18.70
